Latest Weather Observations for Albany Airport

IDW60801

Issued at 3:04 pm WST Wednesday 28 June 2017 (issued every 30 minutes, with the page automatically refreshed every 10 minutes)

About weather observations | Map of weather stations | Latest weather observations for WA | Other Formats
Station Details ID: 009999 Name: ALBANY AIRPORT Lat: -34.94 Lon: 117.82 Height: 68.4 m
Data from the previous 72 hours. | See also: Recent months at Albany Airport
Date/Time
WST
Temp
°C
App
Temp
°C
Dew
Point
°C
Rel
Hum
%
Delta-T
°C
Wind Press
QNH
hPa
Press
MSL
hPa
Rain since
9am
mm
Dir  Spd
km/h
Gust
km/h
Spd
kts
Gust
kts
28/03:00pm 15.2 11.9 6.2 55 4.3 NE 13 17 7 9 1032.8 - 0.0
28/02:30pm 15.7 11.9 5.9 52 4.7 NE 15 19 8 10 1032.8 - 0.0
28/02:00pm 15.9 13.1 5.3 49 5.1 N 9 19 5 10 1033.1 - 0.0
28/01:30pm 15.6 13.0 6.3 54 4.5 E 9 15 5 8 1033.3 - 0.0
28/01:00pm 14.9 12.8 5.8 54 4.4 E 6 11 3 6 1033.7 - 0.0
28/12:30pm 15.9 13.2 7.2 56 4.3 NE 11 19 6 10 1034.0 - 0.0
28/12:00pm 14.7 11.7 6.1 56 4.1 NE 11 15 6 8 1034.7 1034.9 0.0
28/11:30am 14.7 11.4 6.4 57 4.0 NE 13 17 7 9 1034.8 - 0.0
28/11:00am 14.4 12.2 7.7 64 3.3 ENE 9 13 5 7 1035.0 - 0.0
28/10:30am 13.8 12.0 7.9 67 2.9 ENE 7 13 4 7 1035.4 - 0.0
28/10:00am 13.0 11.4 8.8 75 2.1 NE 7 9 4 5 1035.4 - 0.0
28/09:30am 12.2 11.6 8.8 80 1.7 N 2 7 1 4 1035.4 - 0.0
28/09:00am 10.7 10.5 9.1 90 0.8 CALM 0 0 0 0 1035.2 1035.4 2.0
28/08:30am 9.0 8.7 8.6 97 0.2 CALM 0 0 0 0 1035.1 - 2.0
28/08:00am 7.5 5.8 7.5 100 0.0 NNW 6 7 3 4 1034.9 - 2.0
28/07:30am 6.0 4.3 6.0 100 0.0 NNW 4 9 2 5 1034.6 - 2.0
28/07:00am 6.2 4.1 6.0 99 0.1 N 6 11 3 6 1034.5 - 2.0
28/06:30am 6.4 4.8 6.4 100 0.0 N 4 11 2 6 1034.2 - 2.0
28/06:00am 7.5 5.7 7.3 99 0.1 NW 6 7 3 4 1033.8 1034.0 2.0
28/05:30am 7.9 6.2 7.7 99 0.1 NNW 6 13 3 7 1033.6 - 2.0
28/05:00am 7.5 5.6 7.5 100 0.0 NNW 7 11 4 6 1033.5 - 2.0
28/04:30am 8.0 6.4 7.8 99 0.1 WNW 6 7 3 4 1033.5 - 2.0
28/04:00am 7.4 6.0 7.2 99 0.1 N 4 7 2 4 1033.3 - 2.0
28/03:30am 7.7 7.1 7.5 99 0.1 CALM 0 0 0 0 1033.3 - 2.0
28/03:11am 7.3 5.9 7.3 100 0.0 N 4 7 2 4 1033.2 - 2.0
28/03:00am 7.7 6.0 7.7 100 0.0 NW 6 9 3 5 1033.3 1033.5 2.0
28/02:30am 8.8 7.3 8.6 99 0.1 WNW 6 7 3 4 1033.3 - 2.0
28/02:07am 8.5 7.0 8.5 100 0.0 W 6 7 3 4 1033.3 - 2.0
28/02:00am 8.5 7.0 8.3 99 0.1 W 6 7 3 4 1033.3 - 2.0
28/01:37am 8.5 7.0 8.3 99 0.1 W 6 9 3 5 1033.1 - 2.0
28/01:30am 8.6 7.1 8.4 99 0.1 WNW 6 7 3 4 1033.0 - 2.0
28/01:00am 9.1 7.5 8.9 99 0.1 WNW 7 9 4 5 1032.9 - 2.0
28/12:56am 9.1 7.8 9.1 100 0.0 WNW 6 9 3 5 1032.8 - 2.0
28/12:30am 9.0 8.7 8.8 99 0.1 CALM 0 0 0 0 1032.9 - 2.0
28/12:00am 9.2 9.0 9.0 99 0.1 CALM 0 0 0 0 1032.9 1033.1 2.0
 
Date/Time
WST
Temp
°C
App
Temp
°C
Dew
Point
°C
Rel
Hum
%
Delta-T
°C
Wind Press
QNH
hPa
Press
MSL
hPa
Rain since
9am
mm
Dir  Spd
km/h
Gust
km/h
Spd
kts
Gust
kts
27/11:30pm 9.5 9.4 9.5 100 0.0 CALM 0 4 0 2 1032.7 - 2.0
27/11:05pm 9.7 9.6 9.5 99 0.1 CALM 0 0 0 0 1032.7 - 2.0
27/11:00pm 9.7 9.7 9.7 100 0.0 CALM 0 0 0 0 1032.8 - 2.0
27/10:30pm 10.1 10.1 9.9 99 0.1 CALM 0 4 0 2 1032.7 - 2.0
27/10:00pm 10.6 10.3 10.2 97 0.2 NE 2 6 1 3 1032.5 - 2.0
27/09:30pm 11.2 10.1 10.6 96 0.3 NE 7 11 4 6 1032.5 - 1.8
27/09:13pm 11.2 9.7 10.6 96 0.3 ENE 9 13 5 7 1032.5 - 1.8
27/09:00pm 11.4 9.2 10.8 96 0.3 ENE 13 17 7 9 1032.5 1032.7 1.8
27/08:56pm 11.4 9.2 10.8 96 0.3 ENE 13 17 7 9 1032.6 - 1.8
27/08:30pm 11.4 8.4 10.8 96 0.3 E 17 20 9 11 1032.7 - 1.6
27/08:15pm 11.4 8.1 10.8 96 0.3 ENE 19 24 10 13 1032.6 - 1.6
27/08:00pm 11.7 8.2 10.9 95 0.4 ENE 20 28 11 15 1032.5 - 1.2
27/07:44pm 11.9 9.8 11.1 95 0.4 ESE 13 19 7 10 1032.3 - 1.2
27/07:30pm 11.9 9.4 11.1 95 0.4 ESE 15 20 8 11 1032.3 - 1.0
27/07:00pm 11.4 10.8 10.4 94 0.5 ESE 4 13 2 7 1032.0 - 1.0
27/06:30pm 10.8 9.8 10.2 96 0.3 NNE 6 7 3 4 1031.5 - 1.0
27/06:08pm 10.8 9.1 10.0 95 0.4 NE 9 13 5 7 1031.1 - 1.0
27/06:00pm 11.4 9.5 10.6 95 0.4 ENE 11 13 6 7 1031.0 1031.2 1.0
27/05:58pm 11.6 9.7 10.6 94 0.5 ENE 11 13 6 7 1031.0 - 1.0
27/05:54pm 11.9 10.4 10.7 92 0.6 E 9 13 5 7 1030.9 - 1.0
27/05:40pm 12.2 10.4 10.8 91 0.7 SSE 11 20 6 11 1030.7 - 1.0
27/05:30pm 12.0 10.0 10.2 89 0.9 SSE 11 15 6 8 1030.5 - 0.6
27/05:01pm 12.8 11.0 10.9 88 1.0 SSE 11 15 6 8 1030.3 - 0.6
27/05:00pm 12.8 11.4 10.9 88 1.0 SSE 9 15 5 8 1030.3 - 0.6
27/04:48pm 12.9 9.4 11.0 88 1.0 ESE 20 26 11 14 1030.1 - 0.6
27/04:30pm 13.7 11.1 10.6 81 1.6 SSE 15 22 8 12 1029.9 - 0.6
27/04:00pm 15.0 11.4 8.2 64 3.4 ESE 17 20 9 11 1029.6 - 0.6
27/03:30pm 15.3 12.2 8.8 65 3.3 ESE 15 20 8 11 1029.4 - 0.6
27/03:00pm 15.0 11.1 8.7 66 3.2 ESE 19 24 10 13 1029.1 1029.3 0.6
27/02:30pm 14.2 10.0 8.4 68 2.9 ESE 20 24 11 13 1028.9 - 0.6
27/02:00pm 15.1 10.5 8.3 64 3.4 SE 22 28 12 15 1028.7 - 0.6
27/01:30pm 14.9 10.5 9.0 68 3.0 ESE 22 28 12 15 1028.5 - 0.6
27/01:00pm 15.5 10.8 9.3 66 3.2 SE 24 32 13 17 1028.5 - 0.6
27/12:30pm 14.2 10.0 9.7 74 2.3 SE 22 30 12 16 1028.7 - 0.6
27/12:00pm 15.9 12.1 9.7 66 3.2 ESE 20 30 11 16 1028.6 1028.8 0.6
27/11:30am 14.8 13.9 11.4 80 1.8 E 7 13 4 7 1028.9 - 0.6
27/11:10am 14.1 13.5 11.7 85 1.3 E 6 11 3 6 1029.2 - 0.6
27/11:00am 13.3 12.8 12.2 93 0.6 E 6 11 3 6 1029.3 - 0.6
27/10:30am 12.3 11.6 11.5 95 0.4 E 6 7 3 4 1029.2 - 0.6
27/10:00am 12.0 11.1 11.2 95 0.4 E 7 9 4 5 1029.0 - 0.4
27/09:30am 11.1 11.0 10.7 97 0.2 ESE 2 6 1 3 1028.7 - 0.4
27/09:24am 11.0 10.8 10.4 96 0.3 ENE 2 6 1 3 1028.7 - 0.4
27/09:00am 9.7 8.2 9.3 97 0.2 ESE 7 17 4 9 1028.5 1028.7 9.8
27/08:30am 8.7 6.7 8.5 99 0.1 W 9 11 5 6 1027.7 - 9.8
27/08:00am 8.4 5.9 8.2 99 0.1 NW 11 13 6 7 1027.3 - 9.8
27/07:30am 8.0 5.0 7.8 99 0.1 WNW 13 15 7 8 1026.9 - 9.8
27/07:00am 7.6 5.3 7.6 100 0.0 NW 9 11 5 6 1026.4 - 9.8
27/06:30am 7.8 6.8 7.4 97 0.2 NW 2 7 1 4 1026.1 - 9.6
27/06:00am 8.4 5.5 8.2 99 0.1 NW 13 15 7 8 1025.5 1025.7 9.6
27/05:52am 8.8 5.6 8.6 99 0.1 NNW 15 17 8 9 1025.4 - 9.6
27/05:39am 8.8 7.2 8.6 99 0.1 NNE 7 11 4 6 1025.4 - 9.6
27/05:30am 9.0 7.5 8.6 97 0.2 NE 6 9 3 5 1025.4 - 9.4
27/05:00am 9.5 7.2 9.1 97 0.2 NW 11 13 6 7 1025.2 - 9.4
27/04:30am 9.9 8.7 9.5 97 0.2 W 6 9 3 5 1025.0 - 9.4
27/04:01am 10.6 8.9 10.0 96 0.3 SW 9 15 5 8 1024.8 - 9.2
27/04:00am 10.6 8.6 10.0 96 0.3 SW 11 17 6 9 1024.8 - 9.2
27/03:43am 10.6 7.4 9.8 95 0.4 W 17 20 9 11 1024.8 - 9.2
27/03:35am 10.3 7.9 9.9 97 0.2 W 13 19 7 10 1024.8 - 8.4
27/03:30am 10.2 8.2 10.0 99 0.1 W 11 15 6 8 1024.8 - 8.4
27/03:11am 9.9 7.4 9.7 99 0.1 WNW 13 24 7 13 1025.0 - 7.6
27/03:00am 9.3 7.4 9.1 99 0.1 NNW 9 13 5 7 1025.0 1025.2 6.8
27/02:58am 9.3 7.4 9.1 99 0.1 NNW 9 13 5 7 1025.0 - 6.8
27/02:53am 9.1 7.2 9.1 100 0.0 N 9 11 5 6 1024.8 - 6.8
27/02:30am 9.6 7.0 9.4 99 0.1 NW 13 17 7 9 1025.0 - 5.6
27/02:20am 9.6 7.0 9.4 99 0.1 NW 13 17 7 9 1024.8 - 5.6
27/02:10am 9.5 7.2 9.1 97 0.2 NW 11 13 6 7 1024.8 - 4.6
27/02:00am 9.3 7.4 9.1 99 0.1 NW 9 11 5 6 1024.7 - 4.4
27/01:46am 9.2 7.3 9.0 99 0.1 WNW 9 13 5 7 1024.7 - 4.4
27/01:30am 9.1 6.4 8.9 99 0.1 WNW 13 17 7 9 1024.6 - 4.4
27/01:25am 9.1 6.3 8.7 97 0.2 WNW 13 17 7 9 1024.6 - 4.2
27/01:00am 9.0 6.2 8.6 97 0.2 WNW 13 20 7 11 1024.5 - 3.6
27/12:46am 8.9 6.4 8.3 96 0.3 W 11 15 6 8 1024.5 - 3.2
27/12:33am 9.1 5.1 8.1 93 0.5 NW 19 20 10 11 1024.5 - 2.8
27/12:30am 9.2 5.5 7.9 92 0.6 NW 17 24 9 13 1024.5 - 2.6
27/12:00am 9.1 5.7 7.8 92 0.6 NW 15 19 8 10 1024.6 1024.8 2.6
 
Date/Time
WST
Temp
°C
App
Temp
°C
Dew
Point
°C
Rel
Hum
%
Delta-T
°C
Wind Press
QNH
hPa
Press
MSL
hPa
Rain since
9am
mm
Dir  Spd
km/h
Gust
km/h
Spd
kts
Gust
kts
26/11:30pm 8.8 5.8 7.5 91 0.6 NW 13 17 7 9 1024.8 - 2.4
26/11:00pm 8.6 4.7 7.3 91 0.6 NW 17 19 9 10 1024.8 - 2.4
26/10:30pm 9.0 4.8 7.3 89 0.8 NW 19 24 10 13 1024.9 - 2.4
26/10:00pm 8.8 4.9 7.3 90 0.7 NW 17 20 9 11 1025.1 - 2.4
26/09:30pm 9.2 6.2 7.5 89 0.8 NW 13 17 7 9 1025.2 - 2.4
26/09:00pm 9.8 6.0 7.5 85 1.1 WNW 17 20 9 11 1025.3 1025.5 2.4
26/08:30pm 9.2 5.3 7.3 88 0.9 WNW 17 20 9 11 1025.2 - 2.4
26/08:00pm 10.1 6.7 7.6 84 1.2 WNW 15 20 8 11 1025.3 - 2.4
26/07:30pm 9.9 6.5 7.8 87 1.0 WNW 15 19 8 10 1025.3 - 2.4
26/07:00pm 11.3 7.6 8.0 80 1.6 W 17 24 9 13 1025.2 - 2.4
26/06:30pm 11.1 7.5 8.4 83 1.3 WNW 17 20 9 11 1025.0 - 2.4
26/06:00pm 11.5 6.9 8.0 79 1.7 W 22 28 12 15 1024.8 1025.0 2.4
26/05:30pm 12.2 8.0 8.1 76 2.0 W 20 28 11 15 1024.8 - 2.4
26/05:00pm 12.8 7.0 7.9 72 2.4 W 28 39 15 21 1024.5 - 2.4
26/04:30pm 13.5 9.3 8.3 71 2.6 W 20 26 11 14 1024.2 - 2.4
26/04:00pm 14.4 10.4 8.9 69 2.8 W 20 28 11 15 1024.1 - 2.4
26/03:30pm 14.8 11.7 10.4 75 2.3 W 17 24 9 13 1024.1 - 2.4
26/03:00pm 13.7 10.4 10.8 83 1.5 W 19 30 10 16 1024.2 1024.4 2.4
26/02:30pm 13.8 11.2 11.9 88 1.0 W 17 24 9 13 1024.2 - 2.4
26/02:00pm 13.8 10.7 12.1 89 0.9 W 20 26 11 14 1024.2 - 2.4
26/01:30pm 14.4 11.6 12.6 89 1.0 WNW 19 24 10 13 1024.2 - 2.4
26/01:00pm 13.4 9.9 12.3 93 0.6 W 22 30 12 16 1024.6 - 2.4
26/12:55pm 13.2 9.7 12.1 93 0.6 W 22 30 12 16 1024.6 - 2.4
26/12:43pm 13.2 9.7 12.3 94 0.5 W 22 30 12 16 1024.8 - 2.4
26/12:30pm 13.5 9.4 12.6 94 0.5 W 26 37 14 20 1024.9 - 2.0
26/12:27pm 13.4 9.2 12.3 93 0.6 W 26 37 14 20 1024.8 - 2.0
26/12:25pm 13.6 9.4 12.3 92 0.7 W 26 35 14 19 1024.8 - 2.0
26/12:00pm 13.4 10.0 12.5 94 0.5 WNW 22 28 12 15 1025.2 1025.4 2.0
26/11:54am 13.5 10.6 12.8 95 0.4 WNW 20 28 11 15 1025.3 - 2.0
26/11:47am 13.3 10.5 12.6 95 0.4 WNW 19 24 10 13 1025.4 - 2.0
26/11:30am 12.2 9.1 11.6 96 0.3 WNW 19 26 10 14 1025.8 - 2.0
26/11:00am 11.9 8.7 11.3 96 0.3 WNW 19 22 10 12 1026.3 - 0.6
26/10:30am 11.9 8.7 11.3 96 0.3 WNW 19 26 10 14 1026.5 - 0.2
26/10:00am 11.5 7.9 10.7 95 0.4 WNW 20 28 11 15 1026.8 - 0.0
26/09:30am 11.4 8.0 10.6 95 0.4 WNW 19 24 10 13 1026.7 - 0.0
26/09:00am 10.7 6.9 9.7 93 0.5 WNW 20 26 11 14 1026.7 1026.9 1.0
26/08:30am 10.6 7.8 10.0 96 0.3 WNW 15 20 8 11 1026.5 - 1.0
26/08:00am 9.7 7.1 9.3 97 0.2 NW 13 17 7 9 1026.4 - 1.0
26/07:30am 9.0 6.6 8.8 99 0.1 WNW 11 13 6 7 1026.5 - 1.0
26/07:00am 8.5 5.6 8.3 99 0.1 WNW 13 15 7 8 1026.3 - 1.0
26/06:30am 8.4 5.1 8.2 99 0.1 NW 15 19 8 10 1026.1 - 1.0
26/06:00am 7.3 4.2 7.1 99 0.1 NW 13 15 7 8 1026.0 1026.2 1.0
26/05:30am 7.6 4.6 7.6 100 0.0 NW 13 15 7 8 1026.1 - 1.0
26/05:00am 7.8 5.2 7.8 100 0.0 WNW 11 13 6 7 1026.1 - 1.0
26/04:30am 7.3 5.0 7.3 100 0.0 NW 9 11 5 6 1026.0 - 1.0
26/04:06am 6.2 4.6 6.2 100 0.0 NW 4 7 2 4 1026.1 - 1.0
26/04:05am 6.2 4.5 6.0 99 0.1 NW 4 7 2 4 1026.1 - 1.0
26/04:00am 6.2 4.2 6.2 100 0.0 NW 6 7 3 4 1026.1 - 1.0
26/03:35am 6.2 4.0 6.0 99 0.1 NW 7 9 4 5 1026.2 - 1.0
26/03:30am 6.2 3.6 6.2 100 0.0 NW 9 11 5 6 1026.2 - 1.0
26/03:00am 6.8 3.9 6.6 99 0.1 WNW 11 13 6 7 1026.3 1026.6 1.0
26/02:30am 7.0 3.5 7.0 100 0.0 WNW 15 17 8 9 1026.4 - 1.0
26/02:05am 6.9 3.7 6.7 99 0.1 WNW 13 15 7 8 1026.4 - 1.0
26/02:00am 7.0 3.8 7.0 100 0.0 WNW 13 15 7 8 1026.4 - 1.0
26/01:39am 6.8 4.7 6.6 99 0.1 N 7 9 4 5 1026.4 - 1.0
26/01:30am 6.9 4.4 6.5 97 0.2 NW 9 11 5 6 1026.3 - 1.0
26/01:00am 8.0 5.4 7.8 99 0.1 WNW 11 11 6 6 1026.4 - 1.0
26/12:30am 7.9 4.6 7.9 100 0.0 WNW 15 17 8 9 1026.5 - 1.0
26/12:00am 8.2 5.3 8.0 99 0.1 WNW 13 13 7 7 1026.7 1026.9 1.0
 
Date/Time
WST
Temp
°C
App
Temp
°C
Dew
Point
°C
Rel
Hum
%
Delta-T
°C
Wind Press
QNH
hPa
Press
MSL
hPa
Rain since
9am
mm
Dir  Spd
km/h
Gust
km/h
Spd
kts
Gust
kts
25/11:49pm 8.4 5.5 8.0 97 0.2 WNW 13 15 7 8 1026.8 - 0.8
25/11:30pm 8.6 7.0 8.6 100 0.0 WNW 7 9 4 5 1027.0 - 0.8
25/11:07pm 8.8 7.2 8.8 100 0.0 W 7 7 4 4 1027.1 - 0.8
25/11:00pm 9.4 8.4 9.0 97 0.2 NW 4 7 2 4 1027.1 - 0.8
25/10:30pm 10.0 9.2 9.6 97 0.2 NNW 4 7 2 4 1027.0 - 0.8
25/10:00pm 10.4 8.7 10.0 97 0.2 N 9 11 5 6 1027.1 - 0.6
25/09:30pm 10.9 9.9 10.3 96 0.3 N 6 9 3 5 1027.2 - 0.6
25/09:17pm 11.0 9.8 10.4 96 0.3 ENE 7 11 4 6 1027.4 - 0.6
25/09:00pm 11.2 10.0 10.4 95 0.4 SE 7 11 4 6 1027.4 1027.6 0.6
25/08:31pm 11.2 10.0 10.4 95 0.4 WSW 7 13 4 7 1027.5 - 0.2
25/08:30pm 11.2 10.0 10.4 95 0.4 WSW 7 13 4 7 1027.5 - 0.2
25/08:00pm 10.3 8.5 9.5 95 0.4 WNW 9 13 5 7 1027.3 - 0.0
25/07:30pm 10.3 9.8 9.3 93 0.5 SE 2 11 1 6 1027.2 - 0.0
25/07:00pm 11.2 10.0 9.6 90 0.8 SSE 6 7 3 4 1027.3 - 0.0
25/06:30pm 11.2 10.8 9.8 91 0.7 WSW 2 9 1 5 1027.2 - 0.0
25/06:00pm 11.8 10.6 10.2 90 0.8 W 7 9 4 5 1026.9 1027.1 0.0
25/05:30pm 11.8 10.0 9.6 86 1.1 WNW 9 11 5 6 1027.0 - 0.0
25/05:00pm 12.9 12.8 9.6 80 1.7 CALM 0 0 0 0 1026.8 - 0.0
25/04:30pm 13.4 12.2 9.5 77 2.0 SSE 6 6 3 3 1026.8 - 0.0
25/04:00pm 13.8 11.7 8.4 70 2.7 SSE 9 13 5 7 1026.8 - 0.0
25/03:30pm 14.4 11.9 8.4 67 3.0 SSW 11 13 6 7 1026.7 - 0.0

Other Formats:

Comma delimited format used in spreadsheet applications
http://www.bom.gov.au/fwo/IDW60801/IDW60801.94802.axf

JavaScript Object Notation format (JSON) in row-major order
http://www.bom.gov.au/fwo/IDW60801/IDW60801.94802.json